createdAt,value
2022-10-13T00:01:25.762Z,26.10
2022-10-13T00:03:55.226Z,28.55
2022-10-13T00:06:26.525Z,26.67
2022-10-13T00:08:56.780Z,27.15
2022-10-13T00:11:27.584Z,20.13
2022-10-13T00:13:58.092Z,19.30
2022-10-13T00:16:28.732Z,21.92
2022-10-13T00:18:58.643Z,23.67
2022-10-13T00:21:28.901Z,24.08
2022-10-13T00:23:58.785Z,31.23
2022-10-13T00:26:28.073Z,19.73
2022-10-13T00:28:56.773Z,22.85
2022-10-13T00:31:28.544Z,19.30
2022-10-13T00:33:58.735Z,19.08
2022-10-13T00:36:27.230Z,22.33
2022-10-13T00:38:56.272Z,20.77
2022-10-13T00:41:26.284Z,23.98
2022-10-13T00:43:58.939Z,21.98
2022-10-13T00:46:29.614Z,23.48
2022-10-13T00:49:01.718Z,21.65
2022-10-13T00:51:34.358Z,22.63
2022-10-13T00:54:04.632Z,30.27
2022-10-13T00:56:36.083Z,19.02
2022-10-13T00:59:07.481Z,24.15
2022-10-13T01:01:38.211Z,26.92
2022-10-13T01:04:06.571Z,25.40
2022-10-13T01:06:35.834Z,24.13
2022-10-13T01:09:04.289Z,24.80
2022-10-13T01:11:47.504Z,25.60
2022-10-13T01:14:26.250Z,26.83
2022-10-13T01:17:05.437Z,22.70
2022-10-13T01:20:03.127Z,25.35
2022-10-13T01:22:46.318Z,20.77
2022-10-13T01:25:45.862Z,19.83
2022-10-13T01:28:33.969Z,25.23
2022-10-13T01:31:11.054Z,20.33
2022-10-13T01:33:45.597Z,22.58
2022-10-13T01:36:25.469Z,19.58
2022-10-13T01:39:00.941Z,21.10
2022-10-13T01:41:37.540Z,21.55
2022-10-13T01:44:13.397Z,17.75
2022-10-13T01:46:47.282Z,24.60
2022-10-13T01:49:19.360Z,22.45
2022-10-13T01:51:49.865Z,24.20
2022-10-13T01:54:18.300Z,28.92
2022-10-13T01:56:53.569Z,31.45
2022-10-13T01:59:23.630Z,33.38
2022-10-13T02:02:03.279Z,32.63
2022-10-13T02:04:46.712Z,29.85
2022-10-13T02:07:21.992Z,27.80
2022-10-13T02:09:58.906Z,31.17
2022-10-13T02:12:32.261Z,32.55
2022-10-13T02:15:02.658Z,24.02
2022-10-13T02:17:34.759Z,21.17
2022-10-13T02:20:07.369Z,21.42
2022-10-13T02:22:42.953Z,19.85
2022-10-13T02:25:11.885Z,19.95
2022-10-13T02:27:40.402Z,24.90
2022-10-13T02:30:10.081Z,24.00
2022-10-13T02:32:41.273Z,24.58
2022-10-13T02:35:10.273Z,21.60
2022-10-13T02:37:38.678Z,22.58
2022-10-13T02:40:08.564Z,21.15
2022-10-13T02:42:36.836Z,22.98
2022-10-13T02:45:06.533Z,24.67
2022-10-13T02:47:34.725Z,22.58
2022-10-13T02:50:07.597Z,28.05
2022-10-13T02:52:36.134Z,24.55
2022-10-13T02:55:05.218Z,19.58
2022-10-13T02:57:33.843Z,20.73
2022-10-13T03:00:02.113Z,24.77
2022-10-13T03:02:31.022Z,23.67
2022-10-13T03:04:59.122Z,22.77
2022-10-13T03:07:29.203Z,24.90
2022-10-13T03:09:57.496Z,27.20
2022-10-13T03:12:26.253Z,22.95
2022-10-13T03:14:54.700Z,24.73
2022-10-13T03:17:23.206Z,21.45
2022-10-13T03:19:51.611Z,22.90
2022-10-13T03:22:21.473Z,27.13
2022-10-13T03:24:52.687Z,22.85
2022-10-13T03:27:21.493Z,22.45
2022-10-13T03:29:51.191Z,26.65
2022-10-13T03:32:19.819Z,32.92
2022-10-13T03:34:48.474Z,30.08
2022-10-13T03:37:17.156Z,34.05
2022-10-13T03:39:45.523Z,28.88
2022-10-13T03:42:17.303Z,32.90
2022-10-13T03:44:46.202Z,31.42
2022-10-13T03:47:14.619Z,33.92
2022-10-13T03:49:43.445Z,30.75
2022-10-13T03:52:11.638Z,30.52
2022-10-13T03:54:40.134Z,29.15
2022-10-13T03:57:10.161Z,33.70
2022-10-13T03:59:41.558Z,30.38
2022-10-13T04:02:10.367Z,32.85
2022-10-13T04:04:39.265Z,32.40
2022-10-13T04:07:08.893Z,35.20
2022-10-13T04:09:37.248Z,26.02
2022-10-13T04:12:06.185Z,29.83
2022-10-13T04:14:34.924Z,27.50
2022-10-13T04:17:10.827Z,31.48
2022-10-13T04:19:40.086Z,35.08
2022-10-13T04:22:09.323Z,28.83
2022-10-13T04:24:39.561Z,27.02
2022-10-13T04:27:08.015Z,30.02
2022-10-13T04:29:36.499Z,29.98
2022-10-13T04:32:05.000Z,26.77
2022-10-13T04:34:34.998Z,27.25
2022-10-13T04:37:03.551Z,32.72
2022-10-13T04:39:32.277Z,31.17
2022-10-13T04:42:00.607Z,28.33
2022-10-13T04:44:29.208Z,31.75
2022-10-13T04:46:57.652Z,31.80
2022-10-13T04:49:26.648Z,26.02
2022-10-13T04:51:56.230Z,28.55
2022-10-13T04:54:25.151Z,28.90
2022-10-13T04:56:53.390Z,35.22
2022-10-13T04:59:21.829Z,31.77
2022-10-13T05:01:50.377Z,34.40
2022-10-13T05:04:19.313Z,29.40
2022-10-13T05:07:15.956Z,35.25
2022-10-13T05:09:38.220Z,35.35
2022-10-13T05:12:12.408Z,31.05
2022-10-13T05:14:40.816Z,36.85
2022-10-13T05:17:09.138Z,34.40
2022-10-13T05:19:38.161Z,32.38
2022-10-13T05:22:06.330Z,31.42
2022-10-13T05:24:37.583Z,32.55
2022-10-13T05:27:10.596Z,29.65
2022-10-13T05:29:40.101Z,36.67
2022-10-13T05:32:08.940Z,32.05
2022-10-13T05:34:37.332Z,42.28
2022-10-13T05:37:06.161Z,38.60
2022-10-13T05:39:34.600Z,34.08
2022-10-13T05:42:03.586Z,40.28
2022-10-13T05:44:33.889Z,37.83
2022-10-13T05:47:07.363Z,41.03
2022-10-13T05:49:39.617Z,36.83
2022-10-13T05:52:11.550Z,38.55
2022-10-13T05:54:44.418Z,33.75
2022-10-13T05:57:17.526Z,35.15
2022-10-13T05:59:53.604Z,34.22
2022-10-13T06:02:27.443Z,32.67
2022-10-13T06:04:58.922Z,32.10
2022-10-13T06:07:27.823Z,34.10
2022-10-13T06:09:57.225Z,37.75
2022-10-13T06:12:25.586Z,30.33
2022-10-13T06:14:55.771Z,30.80
2022-10-13T06:17:24.100Z,28.35
2022-10-13T06:19:53.107Z,30.77
2022-10-13T06:22:22.487Z,30.40
2022-10-13T06:24:51.261Z,32.33
2022-10-13T06:27:20.646Z,27.48
2022-10-13T06:30:10.335Z,29.02
2022-10-13T06:32:39.006Z,28.10
2022-10-13T06:35:08.590Z,28.92
2022-10-13T06:37:37.141Z,31.65
2022-10-13T06:40:06.511Z,31.88
2022-10-13T06:42:35.056Z,30.40
2022-10-13T06:45:13.562Z,27.27
2022-10-13T06:47:42.228Z,30.58
2022-10-13T06:50:11.533Z,31.95
2022-10-13T06:52:40.921Z,27.23
2022-10-13T06:55:09.951Z,31.70
2022-10-13T06:57:38.327Z,30.13
2022-10-13T07:00:10.926Z,30.30
2022-10-13T07:02:41.275Z,34.70
2022-10-13T07:05:10.340Z,30.50
2022-10-13T07:07:38.802Z,31.73
2022-10-13T07:10:08.039Z,32.30
2022-10-13T07:12:36.384Z,36.80
2022-10-13T07:15:05.018Z,34.08
2022-10-13T07:17:33.730Z,33.08
2022-10-13T07:20:07.181Z,35.75
2022-10-13T07:22:36.102Z,33.33
2022-10-13T07:25:05.094Z,31.30
2022-10-13T07:27:33.894Z,32.13
2022-10-13T07:30:02.676Z,29.83
2022-10-13T07:32:32.464Z,24.60
2022-10-13T07:35:05.405Z,26.58
2022-10-13T07:37:36.591Z,33.40
2022-10-13T07:40:06.898Z,26.50
2022-10-13T07:42:35.798Z,31.02
2022-10-13T07:45:08.736Z,30.75
2022-10-13T07:47:37.407Z,33.17
2022-10-13T07:50:13.050Z,28.85
2022-10-13T07:52:41.704Z,29.05
2022-10-13T07:55:14.083Z,28.25
2022-10-13T07:57:42.698Z,33.42
2022-10-13T08:00:12.862Z,32.22
2022-10-13T08:02:41.637Z,34.80
2022-10-13T08:05:11.521Z,32.05
2022-10-13T08:07:40.427Z,35.35
2022-10-13T08:10:13.292Z,29.42
2022-10-13T08:12:42.054Z,30.08
2022-10-13T08:15:12.357Z,31.58
2022-10-13T08:17:41.394Z,27.88
2022-10-13T08:20:12.173Z,24.88
2022-10-13T08:22:40.806Z,29.23
2022-10-13T08:25:10.729Z,28.00
2022-10-13T08:27:50.804Z,27.55
2022-10-13T08:30:20.903Z,25.33
2022-10-13T08:32:50.171Z,25.48
2022-10-13T08:35:20.261Z,26.50
2022-10-13T08:37:48.866Z,25.48
2022-10-13T08:40:23.274Z,24.65
2022-10-13T08:42:58.001Z,27.17
2022-10-13T08:45:46.945Z,23.60
2022-10-13T08:48:19.525Z,28.05
2022-10-13T08:50:52.551Z,29.17
2022-10-13T08:53:28.222Z,27.20
2022-10-13T08:55:59.332Z,25.48
2022-10-13T08:58:31.320Z,26.92
2022-10-13T09:01:11.591Z,27.92
2022-10-13T09:03:50.459Z,29.17
2022-10-13T09:06:28.350Z,27.40
2022-10-13T09:08:59.745Z,30.70
2022-10-13T09:11:29.442Z,28.88
2022-10-13T09:14:00.176Z,30.50
2022-10-13T09:16:31.108Z,27.95
2022-10-13T09:19:18.721Z,29.35
2022-10-13T09:21:48.515Z,35.83
2022-10-13T09:24:18.390Z,33.50
2022-10-13T09:26:48.592Z,28.05
2022-10-13T09:29:20.198Z,28.33
2022-10-13T09:31:49.088Z,26.65
2022-10-13T09:34:25.167Z,32.30
2022-10-13T09:37:03.932Z,33.67
2022-10-13T09:39:33.396Z,30.00
2022-10-13T09:42:22.301Z,32.10
2022-10-13T09:45:01.836Z,31.67
2022-10-13T09:47:33.289Z,28.20
2022-10-13T09:50:15.804Z,31.95
2022-10-13T09:52:47.158Z,28.35
2022-10-13T09:55:34.306Z,31.58
2022-10-13T09:58:07.752Z,29.35
2022-10-13T10:00:38.666Z,29.35
2022-10-13T10:03:12.522Z,31.55
2022-10-13T10:05:48.542Z,27.60
2022-10-13T10:08:33.547Z,33.25
2022-10-13T10:11:13.297Z,33.17
2022-10-13T10:13:42.085Z,30.10
2022-10-13T10:16:15.726Z,34.17
2022-10-13T10:18:49.396Z,35.65
2022-10-13T10:21:27.188Z,35.75
2022-10-13T10:24:05.044Z,36.65
2022-10-13T10:26:46.293Z,37.10
2022-10-13T10:29:27.346Z,39.13
2022-10-13T10:32:10.899Z,37.05
2022-10-13T10:34:47.362Z,43.08
2022-10-13T10:37:25.207Z,42.42
2022-10-13T10:40:07.982Z,39.20
2022-10-13T10:42:55.648Z,43.55
2022-10-13T10:45:27.836Z,36.28
2022-10-13T10:48:00.784Z,36.63
2022-10-13T10:50:33.321Z,41.92
2022-10-13T10:53:07.318Z,33.80
2022-10-13T10:55:48.229Z,35.83
2022-10-13T10:58:27.411Z,31.67
2022-10-13T11:01:06.750Z,34.30
2022-10-13T11:03:49.662Z,31.83
2022-10-13T11:06:26.189Z,28.77
2022-10-13T11:08:55.694Z,34.22
2022-10-13T11:11:42.575Z,34.25
2022-10-13T11:14:31.929Z,29.67
2022-10-13T11:17:11.457Z,32.30
2022-10-13T11:19:40.889Z,29.50
2022-10-13T11:22:24.648Z,28.65
2022-10-13T11:24:56.669Z,26.10
2022-10-13T11:27:40.312Z,24.67
2022-10-13T11:30:44.421Z,30.38
2022-10-13T11:33:53.061Z,25.75
2022-10-13T11:36:56.077Z,28.95
2022-10-13T11:40:01.725Z,27.00
2022-10-13T11:43:14.947Z,19.75
2022-10-13T11:46:14.326Z,23.35
2022-10-13T11:49:05.085Z,22.00
2022-10-13T11:51:53.061Z,25.75
2022-10-13T11:54:31.577Z,30.95
2022-10-13T11:57:00.241Z,25.23
2022-10-13T11:59:31.148Z,22.75
2022-10-13T12:02:12.484Z,23.25
2022-10-13T12:04:46.562Z,22.40
2022-10-13T12:07:16.946Z,21.42
2022-10-13T12:09:52.915Z,19.65
2022-10-13T12:12:24.775Z,21.83
2022-10-13T12:15:04.259Z,23.48
2022-10-13T12:17:40.295Z,20.10
2022-10-13T12:20:22.760Z,22.48
2022-10-13T12:22:51.867Z,22.05
2022-10-13T12:25:21.764Z,27.13
2022-10-13T12:27:56.398Z,24.05
2022-10-13T12:30:27.043Z,28.02
2022-10-13T12:32:58.903Z,21.95
2022-10-13T12:35:29.266Z,22.42
2022-10-13T12:37:58.621Z,19.70
2022-10-13T12:40:27.906Z,20.15
2022-10-13T12:42:56.650Z,19.40
2022-10-13T12:45:28.676Z,25.63
2022-10-13T12:47:58.600Z,22.20
2022-10-13T12:50:44.756Z,22.33
2022-10-13T12:53:19.824Z,27.88
2022-10-13T12:55:55.226Z,25.38
2022-10-13T12:58:27.895Z,24.13
2022-10-13T13:01:05.957Z,21.55
2022-10-13T13:03:38.769Z,22.95
2022-10-13T13:06:26.936Z,27.92
2022-10-13T13:09:22.786Z,22.38
2022-10-13T13:12:21.843Z,23.50
2022-10-13T13:14:53.571Z,25.35
2022-10-13T13:17:53.285Z,24.85
2022-10-13T13:20:23.712Z,24.58
2022-10-13T13:22:52.039Z,22.42
2022-10-13T13:25:20.638Z,24.75
2022-10-13T13:27:50.055Z,25.25
2022-10-13T13:30:21.092Z,25.40
2022-10-13T13:32:50.252Z,23.70
2022-10-13T13:35:18.699Z,21.27
2022-10-13T13:37:50.824Z,23.52
2022-10-13T13:40:23.447Z,21.98
2022-10-13T13:42:51.988Z,24.83
2022-10-13T13:45:22.297Z,20.13
2022-10-13T13:47:51.370Z,19.95
2022-10-13T13:50:24.067Z,24.48
2022-10-13T13:53:00.289Z,19.60
2022-10-13T13:55:30.115Z,21.63
2022-10-13T13:57:59.059Z,20.75
2022-10-13T14:00:27.994Z,24.52
2022-10-13T14:02:57.072Z,20.35
2022-10-13T14:05:28.592Z,20.85
2022-10-13T14:07:58.013Z,20.55
2022-10-13T14:10:30.436Z,23.02
2022-10-13T14:12:58.901Z,21.65
2022-10-13T14:15:29.899Z,20.52
2022-10-13T14:17:58.741Z,25.75
2022-10-13T14:20:27.255Z,23.65
2022-10-13T14:22:55.672Z,21.17
2022-10-13T14:25:24.276Z,21.77
2022-10-13T14:27:54.001Z,22.80
2022-10-13T14:30:22.568Z,22.02
2022-10-13T14:32:50.946Z,24.70
2022-10-13T14:35:19.797Z,25.52
2022-10-13T14:37:48.326Z,22.58
2022-10-13T14:40:17.060Z,22.20
2022-10-13T14:42:58.944Z,20.23
2022-10-13T14:45:30.743Z,25.48
2022-10-13T14:47:59.569Z,24.73
2022-10-13T14:50:28.429Z,20.67
2022-10-13T14:52:57.042Z,19.88
2022-10-13T14:55:32.989Z,21.08
2022-10-13T14:58:10.690Z,19.13
2022-10-13T15:00:41.204Z,22.63
2022-10-13T15:03:11.381Z,24.15
2022-10-13T15:05:40.285Z,24.60
2022-10-13T15:08:18.598Z,22.45
2022-10-13T15:10:50.838Z,20.90
2022-10-13T15:13:21.604Z,23.55
2022-10-13T15:15:51.148Z,23.55
2022-10-13T15:18:19.772Z,23.70
2022-10-13T15:20:49.246Z,27.25
2022-10-13T15:23:18.650Z,24.85
2022-10-13T15:25:52.218Z,26.45
2022-10-13T15:28:24.929Z,25.27
2022-10-13T15:30:53.755Z,25.92
2022-10-13T15:33:23.627Z,23.42
2022-10-13T15:35:53.049Z,34.03
2022-10-13T15:38:22.785Z,32.83
2022-10-13T15:40:52.101Z,28.73
2022-10-13T15:43:23.344Z,25.90
2022-10-13T15:46:00.396Z,26.13
2022-10-13T15:48:29.392Z,30.77
2022-10-13T15:50:58.169Z,31.50
2022-10-13T15:53:27.049Z,26.92
2022-10-13T15:55:55.919Z,28.02
2022-10-13T15:58:24.763Z,25.67
2022-10-13T16:01:08.537Z,24.70
2022-10-13T16:03:39.136Z,31.52
2022-10-13T16:06:10.559Z,29.75
2022-10-13T16:08:45.815Z,30.75
2022-10-13T16:11:17.064Z,27.70
2022-10-13T16:13:47.769Z,29.02
2022-10-13T16:16:18.081Z,29.80
2022-10-13T16:18:47.212Z,29.15
2022-10-13T16:21:19.032Z,30.23
2022-10-13T16:23:53.598Z,30.90
2022-10-13T16:26:26.404Z,29.63
2022-10-13T16:28:56.025Z,32.80
2022-10-13T16:31:26.593Z,32.70
2022-10-13T16:33:56.137Z,37.22
2022-10-13T16:36:25.423Z,35.25
2022-10-13T16:38:56.888Z,36.15
2022-10-13T16:41:25.978Z,32.50
2022-10-13T16:43:54.545Z,33.13
2022-10-13T16:46:23.211Z,30.30
2022-10-13T16:48:52.838Z,37.95
2022-10-13T16:51:23.082Z,31.83
2022-10-13T16:54:03.578Z,33.95
2022-10-13T16:56:34.687Z,31.95
2022-10-13T16:59:05.502Z,40.50
2022-10-13T17:01:35.297Z,35.75
2022-10-13T17:04:05.842Z,32.00
2022-10-13T17:06:39.894Z,29.92
2022-10-13T17:09:08.479Z,36.97
2022-10-13T17:11:37.608Z,34.10
2022-10-13T17:14:07.012Z,31.88
2022-10-13T17:16:36.029Z,34.50
2022-10-13T17:19:06.787Z,35.83
2022-10-13T17:21:37.628Z,33.03
2022-10-13T17:24:08.983Z,38.65
2022-10-13T17:26:42.213Z,33.72
2022-10-13T17:29:10.723Z,28.33
2022-10-13T17:31:51.494Z,36.50
2022-10-13T17:34:24.857Z,35.30
2022-10-13T17:36:53.566Z,34.58
2022-10-13T17:39:22.040Z,34.22
2022-10-13T17:41:53.314Z,31.90
2022-10-13T17:44:27.581Z,38.50
2022-10-13T17:46:56.267Z,30.15
2022-10-13T17:49:29.043Z,26.95
2022-10-13T17:52:00.032Z,32.25
2022-10-13T17:54:28.398Z,34.15
2022-10-13T17:56:57.933Z,31.80
2022-10-13T17:59:26.662Z,30.75
2022-10-13T18:01:59.148Z,27.92
2022-10-13T18:04:29.941Z,36.05
2022-10-13T18:06:58.313Z,28.42
2022-10-13T18:09:27.670Z,31.60
2022-10-13T18:11:56.290Z,31.00
2022-10-13T18:14:26.072Z,32.78
2022-10-13T18:16:55.274Z,29.63
2022-10-13T18:19:24.667Z,34.53
2022-10-13T18:21:56.353Z,29.80
2022-10-13T18:24:25.635Z,32.30
2022-10-13T18:26:56.115Z,32.72
2022-10-13T18:29:27.541Z,30.35
2022-10-13T18:31:57.328Z,28.98
2022-10-13T18:34:26.638Z,32.03
2022-10-13T18:37:01.724Z,29.67
2022-10-13T18:39:35.172Z,32.55
2022-10-13T18:42:06.848Z,29.63
2022-10-13T18:44:38.236Z,32.20
2022-10-13T18:47:07.374Z,31.23
2022-10-13T18:49:35.804Z,31.35
2022-10-13T18:52:06.661Z,29.65
2022-10-13T18:54:39.466Z,28.33
2022-10-13T18:57:08.302Z,37.67
2022-10-13T18:59:38.742Z,30.83
2022-10-13T19:02:08.140Z,32.35
2022-10-13T19:04:37.192Z,31.00
2022-10-13T19:07:07.152Z,32.85
2022-10-13T19:09:35.901Z,30.92
2022-10-13T19:12:04.479Z,30.08
2022-10-13T19:14:34.127Z,36.95
2022-10-13T19:17:02.680Z,29.88
2022-10-13T19:19:32.201Z,29.00
2022-10-13T19:22:02.264Z,31.77
2022-10-13T19:24:32.578Z,37.30
2022-10-13T19:27:01.420Z,33.53
2022-10-13T19:29:30.674Z,25.33
2022-10-13T19:31:59.333Z,25.27
2022-10-13T19:34:29.343Z,18.23
2022-10-13T19:37:00.113Z,17.23
2022-10-13T19:39:28.975Z,13.75
2022-10-13T19:41:59.226Z,16.92
2022-10-13T19:44:30.071Z,13.18
2022-10-13T19:47:03.099Z,14.18
2022-10-13T19:49:34.974Z,13.57
2022-10-13T19:52:03.570Z,14.75
2022-10-13T19:54:51.248Z,17.45
2022-10-13T19:57:24.236Z,13.57
2022-10-13T19:59:52.698Z,14.30
2022-10-13T20:02:21.082Z,16.67
2022-10-13T20:04:49.333Z,14.70
2022-10-13T20:07:18.112Z,14.27
2022-10-13T20:09:46.794Z,13.73
2022-10-13T20:12:15.537Z,14.07
2022-10-13T20:14:49.687Z,11.45
2022-10-13T20:17:20.604Z,12.85
2022-10-13T20:19:49.357Z,13.70
2022-10-13T20:22:17.700Z,12.23
2022-10-13T20:24:46.496Z,13.63
2022-10-13T20:27:14.958Z,15.32
2022-10-13T20:29:44.636Z,15.02
2022-10-13T20:32:18.585Z,13.40
2022-10-13T20:34:47.878Z,15.52
2022-10-13T20:37:16.980Z,16.45
2022-10-13T20:40:06.565Z,14.32
2022-10-13T20:42:36.068Z,15.93
2022-10-13T20:45:09.035Z,13.30
2022-10-13T20:47:39.471Z,19.48
2022-10-13T20:50:09.593Z,17.25
2022-10-13T20:52:39.554Z,19.85
2022-10-13T20:55:11.712Z,16.48
2022-10-13T20:57:41.569Z,16.48
2022-10-13T21:00:11.585Z,15.48
2022-10-13T21:02:41.854Z,13.27
2022-10-13T21:05:11.162Z,13.73
2022-10-13T21:07:44.189Z,15.82
2022-10-13T21:10:13.204Z,12.45
2022-10-13T21:12:42.026Z,14.80
2022-10-13T21:15:16.423Z,13.63
2022-10-13T21:17:55.286Z,13.88
2022-10-13T21:20:34.284Z,13.50
2022-10-13T21:23:07.912Z,13.05
2022-10-13T21:25:42.711Z,14.25
2022-10-13T21:28:12.573Z,12.48
2022-10-13T21:30:42.011Z,13.40
2022-10-13T21:33:12.195Z,12.80
2022-10-13T21:35:43.055Z,15.02
2022-10-13T21:38:12.182Z,13.48
2022-10-13T21:40:42.924Z,15.60
2022-10-13T21:43:14.755Z,19.20
2022-10-13T21:45:43.802Z,16.40
2022-10-13T21:48:13.696Z,15.05
2022-10-13T21:50:42.998Z,16.02
2022-10-13T21:53:11.715Z,15.25
2022-10-13T21:55:43.350Z,15.35
2022-10-13T21:58:11.846Z,14.23
2022-10-13T22:00:40.867Z,14.88
2022-10-13T22:03:41.956Z,17.60
2022-10-13T22:06:18.456Z,18.23
2022-10-13T22:08:50.030Z,16.83
2022-10-13T22:11:23.846Z,17.45
2022-10-13T22:13:52.611Z,16.02
2022-10-13T22:16:23.292Z,18.73
2022-10-13T22:18:55.076Z,19.27
2022-10-13T22:21:25.793Z,17.80
2022-10-13T22:23:57.810Z,19.73
2022-10-13T22:26:26.897Z,18.20
2022-10-13T22:28:55.659Z,17.90
2022-10-13T22:31:24.160Z,20.25
2022-10-13T22:33:54.543Z,15.82
2022-10-13T22:36:24.800Z,22.05
2022-10-13T22:38:55.231Z,18.27
2022-10-13T22:41:24.052Z,18.45
2022-10-13T22:43:54.530Z,17.90
2022-10-13T22:46:25.072Z,15.63
2022-10-13T22:48:56.186Z,16.77
2022-10-13T22:51:26.289Z,22.48
2022-10-13T22:53:55.008Z,18.08
2022-10-13T22:56:25.816Z,19.27
2022-10-13T22:58:55.917Z,19.42
2022-10-13T23:01:26.053Z,18.92
2022-10-13T23:03:58.555Z,17.13
2022-10-13T23:06:28.954Z,17.40
2022-10-13T23:09:01.508Z,20.45
2022-10-13T23:11:30.457Z,21.52
2022-10-13T23:13:59.005Z,18.58
2022-10-13T23:16:28.139Z,19.63
2022-10-13T23:18:57.876Z,24.23
2022-10-13T23:21:28.138Z,17.67
2022-10-13T23:23:57.257Z,17.38
2022-10-13T23:26:25.930Z,18.92
2022-10-13T23:28:54.818Z,24.45
2022-10-13T23:31:23.542Z,20.88
2022-10-13T23:33:52.173Z,17.27
2022-10-13T23:36:24.744Z,18.02
2022-10-13T23:38:58.889Z,18.50
2022-10-13T23:41:27.859Z,15.63
2022-10-13T23:43:56.546Z,17.20
2022-10-13T23:46:24.909Z,19.60
2022-10-13T23:48:53.542Z,18.65
2022-10-13T23:51:25.356Z,16.98
2022-10-13T23:53:53.971Z,20.42
2022-10-13T23:56:22.539Z,22.15
2022-10-13T23:58:50.921Z,18.55
